createdAt,value
2023-05-21T00:00:06.189Z,3.35
2023-05-21T00:02:32.525Z,3.70
2023-05-21T00:04:58.820Z,3.03
2023-05-21T00:07:25.124Z,3.85
2023-05-21T00:09:51.470Z,3.35
2023-05-21T00:12:17.799Z,3.58
2023-05-21T00:14:44.144Z,3.60
2023-05-21T00:17:10.514Z,4.15
2023-05-21T00:19:36.903Z,3.63
2023-05-21T00:22:03.147Z,2.90
2023-05-21T00:24:29.392Z,4.05
2023-05-21T00:26:55.680Z,3.10
2023-05-21T00:29:21.968Z,3.22
2023-05-21T00:31:48.346Z,3.92
2023-05-21T00:34:14.664Z,3.28
2023-05-21T00:36:40.921Z,3.42
2023-05-21T00:39:07.201Z,3.60
2023-05-21T00:41:33.488Z,3.28
2023-05-21T00:43:59.832Z,3.25
2023-05-21T00:46:26.243Z,3.10
2023-05-21T00:48:52.678Z,3.42
2023-05-21T00:51:19.210Z,3.72
2023-05-21T00:53:45.528Z,3.53
2023-05-21T00:56:11.843Z,3.70
2023-05-21T00:58:38.117Z,2.90
2023-05-21T01:01:04.483Z,3.17
2023-05-21T01:03:30.855Z,3.22
2023-05-21T01:05:57.222Z,2.38
2023-05-21T01:08:23.550Z,3.20
2023-05-21T01:10:49.776Z,3.03
2023-05-21T01:13:16.054Z,2.88
2023-05-21T01:15:42.359Z,2.45
2023-05-21T01:18:08.695Z,2.67
2023-05-21T01:20:35.016Z,3.33
2023-05-21T01:23:01.301Z,3.33
2023-05-21T01:25:27.605Z,2.97
2023-05-21T01:27:54.012Z,3.47
2023-05-21T01:30:20.316Z,2.90
2023-05-21T01:32:46.668Z,3.00
2023-05-21T01:35:13.110Z,3.00
2023-05-21T01:37:39.402Z,3.88
2023-05-21T01:40:05.676Z,3.42
2023-05-21T01:42:31.987Z,2.90
2023-05-21T01:44:58.237Z,3.50
2023-05-21T01:47:24.519Z,3.38
2023-05-21T01:49:50.852Z,3.60
2023-05-21T01:52:17.182Z,3.15
2023-05-21T01:54:43.475Z,3.33
2023-05-21T01:57:09.774Z,3.33
2023-05-21T01:59:36.056Z,2.70
2023-05-21T02:02:02.471Z,3.22
2023-05-21T02:04:28.779Z,3.25
2023-05-21T02:06:55.140Z,3.13
2023-05-21T02:09:21.459Z,3.05
2023-05-21T02:11:47.708Z,2.92
2023-05-21T02:14:13.949Z,3.20
2023-05-21T02:16:40.421Z,2.90
2023-05-21T02:19:06.874Z,3.40
2023-05-21T02:21:33.292Z,2.75
2023-05-21T02:23:59.591Z,3.40
2023-05-21T02:26:25.894Z,3.13
2023-05-21T02:28:52.160Z,3.63
2023-05-21T02:31:18.461Z,3.80
2023-05-21T02:33:44.852Z,3.40
2023-05-21T02:36:11.166Z,3.58
2023-05-21T02:38:37.494Z,3.35
2023-05-21T02:41:03.776Z,3.63
2023-05-21T02:43:30.065Z,3.15
2023-05-21T02:45:56.384Z,3.80
2023-05-21T02:48:22.672Z,3.83
2023-05-21T02:50:48.927Z,3.45
2023-05-21T02:53:15.199Z,3.10
2023-05-21T02:55:41.497Z,3.55
2023-05-21T02:58:07.814Z,4.03
2023-05-21T03:00:34.127Z,3.40
2023-05-21T03:03:00.543Z,3.50
2023-05-21T03:05:26.949Z,3.15
2023-05-21T03:07:53.280Z,3.28
2023-05-21T03:10:19.603Z,3.95
2023-05-21T03:12:45.914Z,3.55
2023-05-21T03:15:12.171Z,3.42
2023-05-21T03:17:38.447Z,3.30
2023-05-21T03:20:04.829Z,3.40
2023-05-21T03:22:31.149Z,3.80
2023-05-21T03:24:57.392Z,3.58
2023-05-21T03:27:23.708Z,4.10
2023-05-21T03:29:50.039Z,3.58
2023-05-21T03:32:16.589Z,3.20
2023-05-21T03:34:42.999Z,3.70
2023-05-21T03:37:09.314Z,3.28
2023-05-21T03:39:35.660Z,3.20
2023-05-21T03:42:01.919Z,3.47
2023-05-21T03:44:28.162Z,3.33
2023-05-21T03:46:54.460Z,3.65
2023-05-21T03:49:20.771Z,3.65
2023-05-21T03:51:47.056Z,3.60
2023-05-21T03:54:13.346Z,3.95
2023-05-21T03:56:39.653Z,3.47
2023-05-21T03:59:05.933Z,4.15
2023-05-21T04:01:32.332Z,4.32
2023-05-21T04:03:58.660Z,3.72
2023-05-21T04:06:24.992Z,6.70
2023-05-21T04:08:51.290Z,6.03
2023-05-21T04:11:17.648Z,7.00
2023-05-21T04:13:43.915Z,8.48
2023-05-21T04:16:10.273Z,8.20
2023-05-21T04:18:36.609Z,7.95
2023-05-21T04:21:02.975Z,7.72
2023-05-21T04:23:29.259Z,6.85
2023-05-21T04:25:55.576Z,7.63
2023-05-21T04:28:21.912Z,8.75
2023-05-21T04:30:48.184Z,8.52
2023-05-21T04:33:14.539Z,8.65
2023-05-21T04:35:40.845Z,8.30
2023-05-21T04:38:07.230Z,13.02
2023-05-21T04:40:33.470Z,11.30
2023-05-21T04:43:03.044Z,11.88
2023-05-21T04:45:29.305Z,10.13
2023-05-21T04:47:55.676Z,7.55
2023-05-21T04:50:22.034Z,7.28
2023-05-21T04:52:48.423Z,7.18
2023-05-21T04:55:14.716Z,7.70
2023-05-21T04:57:41.008Z,7.57
2023-05-21T05:00:07.321Z,8.77
2023-05-21T05:02:33.678Z,7.55
2023-05-21T05:05:00.062Z,8.90
2023-05-21T05:07:26.340Z,9.27
2023-05-21T05:09:52.659Z,8.95
2023-05-21T05:12:18.930Z,9.90
2023-05-21T05:14:45.223Z,10.02
2023-05-21T05:17:11.515Z,10.10
2023-05-21T05:19:37.786Z,12.85
2023-05-21T05:22:04.052Z,13.82
2023-05-21T05:24:30.377Z,14.63
2023-05-21T05:26:56.639Z,13.77
2023-05-21T05:29:22.854Z,13.85
2023-05-21T05:31:49.182Z,8.57
2023-05-21T05:34:15.421Z,6.82
2023-05-21T05:36:41.726Z,6.18
2023-05-21T05:39:08.080Z,6.68
2023-05-21T05:41:34.385Z,6.75
2023-05-21T05:44:00.754Z,8.43
2023-05-21T05:46:27.111Z,8.82
2023-05-21T05:48:53.495Z,8.95
2023-05-21T05:51:19.726Z,7.20
2023-05-21T05:53:45.977Z,8.68
2023-05-21T05:56:12.231Z,8.00
2023-05-21T05:58:38.481Z,8.82
2023-05-21T06:01:04.759Z,8.73
2023-05-21T06:03:31.198Z,8.50
2023-05-21T06:05:57.668Z,9.23
2023-05-21T06:08:23.934Z,9.07
2023-05-21T06:10:51.542Z,9.07
2023-05-21T06:13:17.783Z,9.52
2023-05-21T06:15:44.029Z,9.65
2023-05-21T06:18:10.445Z,10.02
2023-05-21T06:20:36.752Z,9.52
2023-05-21T06:23:03.098Z,10.05
2023-05-21T06:25:29.470Z,10.73
2023-05-21T06:27:55.751Z,10.93
2023-05-21T06:30:22.110Z,10.02
2023-05-21T06:32:48.447Z,10.70
2023-05-21T06:35:14.762Z,9.82
2023-05-21T06:37:41.014Z,10.65
2023-05-21T06:40:07.320Z,12.05
2023-05-21T06:42:33.694Z,10.77
2023-05-21T06:44:59.932Z,11.75
2023-05-21T06:47:26.323Z,12.02
2023-05-21T06:49:52.619Z,11.35
2023-05-21T06:52:18.921Z,11.57
2023-05-21T06:54:48.296Z,12.10
2023-05-21T06:57:14.686Z,11.50
2023-05-21T06:59:40.955Z,12.43
2023-05-21T07:02:07.371Z,12.38
2023-05-21T07:04:33.703Z,12.38
2023-05-21T07:07:00.074Z,11.75
2023-05-21T07:09:26.510Z,11.55
2023-05-21T07:11:52.787Z,11.13
2023-05-21T07:14:19.017Z,11.77
2023-05-21T07:16:45.385Z,11.70
2023-05-21T07:19:11.733Z,11.55
2023-05-21T07:21:38.030Z,10.98
2023-05-21T07:24:04.268Z,10.77
2023-05-21T07:26:30.614Z,11.27
2023-05-21T07:28:56.979Z,11.25
2023-05-21T07:31:23.356Z,11.27
2023-05-21T07:33:49.664Z,12.38
2023-05-21T07:36:15.924Z,12.40
2023-05-21T07:38:42.206Z,11.48
2023-05-21T07:41:08.516Z,11.13
2023-05-21T07:43:34.880Z,11.90
2023-05-21T07:46:01.298Z,10.88
2023-05-21T07:48:27.600Z,11.15
2023-05-21T07:50:53.853Z,11.38
2023-05-21T07:53:20.082Z,10.60
2023-05-21T07:55:46.357Z,11.15
2023-05-21T07:58:12.781Z,11.02
2023-05-21T08:00:39.159Z,9.90
2023-05-21T08:03:05.595Z,11.50
2023-05-21T08:05:31.939Z,11.30
2023-05-21T08:07:58.223Z,10.80
2023-05-21T08:10:24.520Z,10.82
2023-05-21T08:12:50.827Z,11.68
2023-05-21T08:15:17.102Z,10.85
2023-05-21T08:17:43.570Z,10.15
2023-05-21T08:20:09.891Z,11.32
2023-05-21T08:22:36.266Z,10.95
2023-05-21T08:25:02.652Z,10.20
2023-05-21T08:27:29.044Z,10.15
2023-05-21T08:29:55.414Z,9.98
2023-05-21T08:32:21.843Z,9.90
2023-05-21T08:34:48.161Z,9.80
2023-05-21T08:37:14.480Z,10.88
2023-05-21T08:39:40.716Z,9.20
2023-05-21T08:42:07.071Z,9.43
2023-05-21T08:44:33.497Z,8.93
2023-05-21T08:46:59.799Z,8.45
2023-05-21T08:49:27.156Z,9.48
2023-05-21T08:51:53.860Z,9.48
2023-05-21T08:54:20.167Z,10.25
2023-05-21T08:56:46.520Z,9.05
2023-05-21T08:59:12.826Z,9.30
2023-05-21T09:01:39.210Z,9.30
2023-05-21T09:04:19.798Z,9.75
2023-05-21T09:06:47.452Z,9.18
2023-05-21T09:09:13.835Z,9.18
2023-05-21T09:11:40.133Z,9.07
2023-05-21T09:14:06.431Z,9.60
2023-05-21T09:16:32.800Z,9.13
2023-05-21T09:18:59.629Z,10.00
2023-05-21T09:21:26.997Z,8.75
2023-05-21T09:23:53.391Z,9.25
2023-05-21T09:26:19.780Z,9.90
2023-05-21T09:28:46.115Z,9.82
2023-05-21T09:31:12.563Z,9.00
2023-05-21T09:33:38.821Z,9.32
2023-05-21T09:36:05.225Z,9.35
2023-05-21T09:38:31.468Z,9.00
2023-05-21T09:40:57.761Z,9.90
2023-05-21T09:43:24.064Z,9.73
2023-05-21T09:45:50.380Z,8.90
2023-05-21T09:48:16.692Z,8.70
2023-05-21T09:50:42.974Z,8.52
2023-05-21T09:53:09.339Z,8.63
2023-05-21T09:55:35.647Z,8.70
2023-05-21T09:58:01.897Z,8.25
2023-05-21T10:00:28.195Z,7.32
2023-05-21T10:02:54.596Z,7.95
2023-05-21T10:05:20.968Z,7.05
2023-05-21T10:07:47.260Z,7.30
2023-05-21T10:10:13.516Z,7.22
2023-05-21T10:12:39.839Z,7.50
2023-05-21T10:15:06.165Z,7.47
2023-05-21T10:17:32.539Z,8.07
2023-05-21T10:19:58.927Z,7.80
2023-05-21T10:22:25.297Z,6.80
2023-05-21T10:24:51.606Z,6.90
2023-05-21T10:27:17.897Z,6.88
2023-05-21T10:29:44.174Z,6.45
2023-05-21T10:32:10.517Z,7.15
2023-05-21T10:34:36.785Z,6.38
2023-05-21T10:37:03.078Z,6.72
2023-05-21T10:39:29.335Z,5.97
2023-05-21T10:41:57.654Z,6.82
2023-05-21T10:44:25.442Z,6.82
2023-05-21T10:46:51.791Z,7.30
2023-05-21T10:49:18.054Z,6.47
2023-05-21T10:51:44.317Z,6.88
2023-05-21T10:54:10.580Z,7.43
2023-05-21T10:56:37.032Z,6.78
2023-05-21T10:59:03.352Z,7.28
2023-05-21T11:01:29.630Z,6.55
2023-05-21T11:03:55.997Z,6.68
2023-05-21T11:06:22.326Z,6.60
2023-05-21T11:08:48.569Z,6.78
2023-05-21T11:11:14.830Z,6.32
2023-05-21T11:13:41.058Z,6.43
2023-05-21T11:16:07.340Z,6.07
2023-05-21T11:18:33.631Z,5.72
2023-05-21T11:20:59.850Z,6.35
2023-05-21T11:23:26.196Z,6.38
2023-05-21T11:25:52.515Z,6.18
2023-05-21T11:28:18.863Z,6.25
2023-05-21T11:30:45.439Z,6.38
2023-05-21T11:33:12.006Z,6.55
2023-05-21T11:35:38.253Z,6.57
2023-05-21T11:38:04.585Z,6.10
2023-05-21T11:40:30.852Z,5.85
2023-05-21T11:42:57.141Z,6.55
2023-05-21T11:45:23.520Z,6.40
2023-05-21T11:47:49.874Z,7.07
2023-05-21T11:50:16.235Z,6.03
2023-05-21T11:52:42.529Z,6.47
2023-05-21T11:55:08.826Z,6.30
2023-05-21T11:57:35.439Z,6.43
2023-05-21T12:00:01.810Z,6.28
2023-05-21T12:02:28.252Z,6.68
2023-05-21T12:04:54.585Z,6.82
2023-05-21T12:07:20.990Z,6.80
2023-05-21T12:09:47.327Z,6.43
2023-05-21T12:12:13.737Z,6.32
2023-05-21T12:14:40.052Z,6.80
2023-05-21T12:17:06.355Z,6.60
2023-05-21T12:19:32.751Z,7.50
2023-05-21T12:21:59.088Z,7.30
2023-05-21T12:24:25.417Z,7.75
2023-05-21T12:26:51.736Z,8.05
2023-05-21T12:29:18.069Z,7.55
2023-05-21T12:31:44.368Z,5.78
2023-05-21T12:34:10.676Z,6.18
2023-05-21T12:36:36.995Z,5.05
2023-05-21T12:39:03.279Z,4.75
2023-05-21T12:41:29.570Z,6.32
2023-05-21T12:43:56.036Z,6.78
2023-05-21T12:46:22.308Z,5.72
2023-05-21T12:48:48.721Z,5.68
2023-05-21T12:51:15.007Z,6.30
2023-05-21T12:53:41.318Z,7.15
2023-05-21T12:56:07.647Z,7.30
2023-05-21T12:58:33.928Z,9.25
2023-05-21T13:01:00.965Z,7.95
2023-05-21T13:03:28.159Z,8.25
2023-05-21T13:05:54.387Z,8.18
2023-05-21T13:08:20.645Z,8.02
2023-05-21T13:10:46.941Z,7.15
2023-05-21T13:13:13.221Z,8.38
2023-05-21T13:15:39.571Z,7.38
2023-05-21T13:18:05.920Z,7.35
2023-05-21T13:20:32.312Z,8.45
2023-05-21T13:22:58.622Z,8.50
2023-05-21T13:25:25.244Z,9.32
2023-05-21T13:27:51.659Z,8.85
2023-05-21T13:30:18.054Z,9.48
2023-05-21T13:32:44.542Z,9.70
2023-05-21T13:35:10.913Z,9.32
2023-05-21T13:37:37.222Z,8.77
2023-05-21T13:40:03.539Z,9.32
2023-05-21T13:42:29.809Z,7.90
2023-05-21T13:44:56.106Z,8.82
2023-05-21T13:47:22.485Z,7.70
2023-05-21T13:49:48.836Z,7.07
2023-05-21T13:52:15.205Z,8.48
2023-05-21T13:54:41.496Z,7.70
2023-05-21T13:57:07.838Z,8.00
2023-05-21T13:59:34.218Z,7.03
2023-05-21T14:02:00.724Z,7.80
2023-05-21T14:04:27.066Z,7.97
2023-05-21T14:06:53.401Z,7.50
2023-05-21T14:09:19.806Z,7.75
2023-05-21T14:11:46.149Z,9.35
2023-05-21T14:14:12.632Z,8.60
2023-05-21T14:16:39.049Z,8.55
2023-05-21T14:19:05.416Z,8.82
2023-05-21T14:21:31.708Z,9.05
2023-05-21T14:23:58.017Z,8.63
2023-05-21T14:26:24.405Z,8.40
2023-05-21T14:28:50.738Z,7.70
2023-05-21T14:31:17.035Z,8.65
2023-05-21T14:33:43.352Z,7.80
2023-05-21T14:36:09.630Z,7.75
2023-05-21T14:38:35.958Z,7.90
2023-05-21T14:41:02.284Z,7.63
2023-05-21T14:43:28.613Z,7.20
2023-05-21T14:45:54.980Z,7.70
2023-05-21T14:48:21.339Z,7.78
2023-05-21T14:50:47.614Z,9.23
2023-05-21T14:53:13.974Z,9.43
2023-05-21T14:55:40.622Z,8.38
2023-05-21T14:58:07.155Z,8.88
2023-05-21T15:00:33.465Z,8.95
2023-05-21T15:02:59.858Z,8.70
2023-05-21T15:05:26.256Z,8.77
2023-05-21T15:07:52.601Z,8.77
2023-05-21T15:10:18.901Z,8.80
2023-05-21T15:12:45.284Z,8.90
2023-05-21T15:15:11.596Z,9.43
2023-05-21T15:17:37.960Z,7.78
2023-05-21T15:20:04.316Z,8.77
2023-05-21T15:22:30.684Z,8.90
2023-05-21T15:24:57.036Z,9.10
2023-05-21T15:27:23.359Z,8.88
2023-05-21T15:29:49.793Z,7.35
2023-05-21T15:32:16.175Z,9.05
2023-05-21T15:34:42.475Z,8.25
2023-05-21T15:37:08.882Z,9.10
2023-05-21T15:39:35.263Z,8.05
2023-05-21T15:42:01.566Z,8.63
2023-05-21T15:44:27.889Z,9.15
2023-05-21T15:46:54.192Z,8.80
2023-05-21T15:49:20.603Z,8.15
2023-05-21T15:51:47.073Z,10.10
2023-05-21T15:54:13.426Z,8.48
2023-05-21T15:56:39.709Z,8.43
2023-05-21T15:59:06.009Z,9.02
2023-05-21T16:01:32.392Z,9.25
2023-05-21T16:03:58.867Z,8.63
2023-05-21T16:06:25.222Z,8.35
2023-05-21T16:08:51.535Z,8.50
2023-05-21T16:11:17.925Z,7.85
2023-05-21T16:13:44.342Z,8.18
2023-05-21T16:16:10.663Z,8.18
2023-05-21T16:18:36.930Z,8.52
2023-05-21T16:21:03.230Z,9.48
2023-05-21T16:23:29.560Z,8.73
2023-05-21T16:25:55.870Z,8.50
2023-05-21T16:28:22.319Z,8.95
2023-05-21T16:30:48.698Z,8.13
2023-05-21T16:33:15.174Z,9.13
2023-05-21T16:35:41.465Z,8.55
2023-05-21T16:38:07.780Z,8.27
2023-05-21T16:40:34.025Z,8.13
2023-05-21T16:43:02.013Z,8.52
2023-05-21T16:45:28.684Z,9.73
2023-05-21T16:47:55.018Z,8.98
2023-05-21T16:50:21.289Z,9.93
2023-05-21T16:52:47.582Z,9.82
2023-05-21T16:55:13.888Z,9.32
2023-05-21T16:57:40.262Z,8.85
2023-05-21T17:00:06.556Z,8.52
2023-05-21T17:02:32.979Z,8.30
2023-05-21T17:04:59.315Z,9.00
2023-05-21T17:07:25.656Z,9.55
2023-05-21T17:09:51.945Z,8.13
2023-05-21T17:12:18.274Z,7.40
2023-05-21T17:14:44.536Z,7.55
2023-05-21T17:17:10.966Z,4.45
2023-05-21T17:19:37.400Z,3.63
2023-05-21T17:22:03.721Z,3.78
2023-05-21T17:24:30.002Z,3.80
2023-05-21T17:26:56.328Z,3.28
2023-05-21T17:29:22.627Z,3.78
2023-05-21T17:31:49.055Z,3.60
2023-05-21T17:34:15.389Z,5.07
2023-05-21T17:36:41.728Z,4.68
2023-05-21T17:39:08.082Z,5.45
2023-05-21T17:41:34.388Z,4.25
2023-05-21T17:44:00.697Z,5.15
2023-05-21T17:46:27.031Z,4.88
2023-05-21T17:48:53.340Z,5.45
2023-05-21T17:51:19.662Z,5.18
2023-05-21T17:53:45.962Z,5.00
2023-05-21T17:56:12.266Z,5.63
2023-05-21T17:58:38.576Z,5.07
2023-05-21T18:01:04.937Z,5.57
2023-05-21T18:03:31.314Z,4.55
2023-05-21T18:05:57.612Z,5.50
2023-05-21T18:08:23.932Z,5.25
2023-05-21T18:10:50.206Z,4.43
2023-05-21T18:13:16.541Z,4.78
2023-05-21T18:15:42.892Z,4.07
2023-05-21T18:18:09.289Z,4.70
2023-05-21T18:20:35.822Z,4.13
2023-05-21T18:23:02.798Z,3.83
2023-05-21T18:25:29.532Z,3.78
2023-05-21T18:27:55.920Z,3.60
2023-05-21T18:30:22.192Z,3.70
2023-05-21T18:32:48.483Z,3.72
2023-05-21T18:35:16.645Z,3.92
2023-05-21T18:37:43.183Z,3.75
2023-05-21T18:40:09.451Z,4.22
2023-05-21T18:42:35.846Z,3.72
2023-05-21T18:45:02.241Z,3.88
2023-05-21T18:47:28.500Z,4.30
2023-05-21T18:49:54.832Z,3.70
2023-05-21T18:52:21.050Z,3.13
2023-05-21T18:54:47.416Z,2.53
2023-05-21T18:57:13.799Z,2.95
2023-05-21T18:59:40.115Z,3.45
2023-05-21T19:02:06.587Z,4.38
2023-05-21T19:04:32.940Z,4.32
2023-05-21T19:06:59.257Z,4.18
2023-05-21T19:09:25.590Z,5.20
2023-05-21T19:11:51.886Z,4.90
2023-05-21T19:14:18.190Z,5.93
2023-05-21T19:16:44.517Z,9.65
2023-05-21T19:19:10.910Z,5.25
2023-05-21T19:21:37.230Z,5.10
2023-05-21T19:24:05.596Z,4.78
2023-05-21T19:26:32.382Z,4.85
2023-05-21T19:28:58.659Z,4.97
2023-05-21T19:31:24.965Z,4.35
2023-05-21T19:33:51.430Z,5.55
2023-05-21T19:36:17.799Z,5.75
2023-05-21T19:38:44.172Z,6.95
2023-05-21T19:41:10.549Z,6.50
2023-05-21T19:43:36.895Z,6.25
2023-05-21T19:46:03.224Z,5.88
2023-05-21T19:48:29.597Z,5.28
2023-05-21T19:50:55.961Z,5.65
2023-05-21T19:53:22.311Z,5.32
2023-05-21T19:55:48.713Z,4.82
2023-05-21T19:58:15.028Z,5.35
2023-05-21T20:00:41.306Z,4.85
2023-05-21T20:03:07.798Z,6.68
2023-05-21T20:05:34.213Z,5.55
2023-05-21T20:08:00.534Z,5.10
2023-05-21T20:10:26.874Z,5.53
2023-05-21T20:12:53.168Z,4.60
2023-05-21T20:15:19.444Z,5.75
2023-05-21T20:17:45.807Z,4.72
2023-05-21T20:20:12.163Z,4.22
2023-05-21T20:22:38.547Z,4.32
2023-05-21T20:25:04.838Z,4.15
2023-05-21T20:27:31.094Z,3.55
2023-05-21T20:29:57.389Z,4.47
2023-05-21T20:32:23.756Z,4.38
2023-05-21T20:35:02.008Z,4.32
2023-05-21T20:37:29.413Z,4.25
2023-05-21T20:39:55.732Z,4.63
2023-05-21T20:42:22.024Z,4.55
2023-05-21T20:44:48.268Z,4.35
2023-05-21T20:47:14.517Z,4.72
2023-05-21T20:49:40.801Z,4.60
2023-05-21T20:52:07.102Z,4.82
2023-05-21T20:54:33.403Z,4.43
2023-05-21T20:56:59.706Z,4.07
2023-05-21T20:59:25.971Z,4.30
2023-05-21T21:01:52.291Z,4.35
2023-05-21T21:04:18.610Z,5.05
2023-05-21T21:06:44.897Z,4.15
2023-05-21T21:09:11.296Z,4.03
2023-05-21T21:11:37.606Z,3.88
2023-05-21T21:14:03.902Z,4.97
2023-05-21T21:16:30.289Z,4.32
2023-05-21T21:18:56.741Z,4.28
2023-05-21T21:21:23.061Z,6.15
2023-05-21T21:23:49.347Z,5.15
2023-05-21T21:26:15.658Z,4.93
2023-05-21T21:28:41.999Z,5.18
2023-05-21T21:31:08.309Z,5.55
2023-05-21T21:33:34.689Z,5.47
2023-05-21T21:36:01.081Z,5.28
2023-05-21T21:38:27.391Z,5.03
2023-05-21T21:40:53.695Z,5.70
2023-05-21T21:43:19.958Z,4.93
2023-05-21T21:45:46.264Z,5.50
2023-05-21T21:48:12.549Z,5.20
2023-05-21T21:50:39.047Z,5.03
2023-05-21T21:53:05.550Z,5.97
2023-05-21T21:55:32.056Z,5.38
2023-05-21T21:57:58.387Z,5.63
2023-05-21T22:00:24.658Z,5.72
2023-05-21T22:02:51.032Z,5.50
2023-05-21T22:05:17.643Z,5.57
2023-05-21T22:07:44.016Z,5.50
2023-05-21T22:10:10.313Z,6.13
2023-05-21T22:12:36.583Z,5.88
2023-05-21T22:15:02.926Z,5.90
2023-05-21T22:17:29.229Z,6.22
2023-05-21T22:19:55.595Z,5.93
2023-05-21T22:22:21.900Z,5.30
2023-05-21T22:24:48.154Z,6.53
2023-05-21T22:27:14.381Z,6.13
2023-05-21T22:29:40.733Z,6.15
2023-05-21T22:32:07.063Z,6.43
2023-05-21T22:34:33.276Z,6.38
2023-05-21T22:36:59.569Z,6.20
2023-05-21T22:39:25.874Z,5.47
2023-05-21T22:41:52.149Z,6.00
2023-05-21T22:44:18.402Z,6.28
2023-05-21T22:46:44.682Z,6.07
2023-05-21T22:49:11.052Z,6.13
2023-05-21T22:51:37.378Z,5.90
2023-05-21T22:54:03.758Z,5.75
2023-05-21T22:56:30.003Z,5.82
2023-05-21T22:58:56.247Z,6.40
2023-05-21T23:01:22.577Z,6.00
2023-05-21T23:03:48.873Z,6.32
2023-05-21T23:06:15.188Z,6.40
2023-05-21T23:08:41.411Z,5.55
2023-05-21T23:11:07.646Z,6.10
2023-05-21T23:13:33.932Z,5.68
2023-05-21T23:16:00.292Z,5.70
2023-05-21T23:18:26.633Z,6.68
2023-05-21T23:20:52.909Z,5.90
2023-05-21T23:23:19.253Z,6.68
2023-05-21T23:25:45.568Z,6.72
2023-05-21T23:28:11.882Z,7.15
2023-05-21T23:30:38.392Z,6.70
2023-05-21T23:33:04.992Z,6.50
2023-05-21T23:35:31.361Z,7.90
2023-05-21T23:37:57.621Z,7.55
2023-05-21T23:40:23.971Z,7.50
2023-05-21T23:42:50.234Z,7.63
2023-05-21T23:45:16.481Z,7.43
2023-05-21T23:47:42.761Z,7.97
2023-05-21T23:50:09.099Z,7.28
2023-05-21T23:52:35.332Z,7.60
2023-05-21T23:55:01.651Z,8.15
2023-05-21T23:57:28.016Z,7.75
2023-05-21T23:59:54.268Z,7.97
